sensor_id;sensor_type;location;lat;lon;timestamp;temperature;humidity
38488;DHT22;57384;51.986;4.458;2023-10-13T00:02:07;18.80;85.00
38488;DHT22;57384;51.986;4.458;2023-10-13T00:04:36;18.80;85.00
38488;DHT22;57384;51.986;4.458;2023-10-13T00:07:06;18.70;84.80
38488;DHT22;57384;51.986;4.458;2023-10-13T00:09:34;18.80;84.80
38488;DHT22;57384;51.986;4.458;2023-10-13T00:12:02;18.80;84.90
38488;DHT22;57384;51.986;4.458;2023-10-13T00:14:32;18.80;85.00
38488;DHT22;57384;51.986;4.458;2023-10-13T00:17:04;18.70;84.90
38488;DHT22;57384;51.986;4.458;2023-10-13T00:19:34;18.80;85.00
38488;DHT22;57384;51.986;4.458;2023-10-13T00:22:05;18.80;84.90
38488;DHT22;57384;51.986;4.458;2023-10-13T00:27:35;18.80;84.90
38488;DHT22;57384;51.986;4.458;2023-10-13T00:30:17;18.70;84.90
38488;DHT22;57384;51.986;4.458;2023-10-13T00:32:57;18.70;85.00
38488;DHT22;57384;51.986;4.458;2023-10-13T00:35:27;18.80;85.10
38488;DHT22;57384;51.986;4.458;2023-10-13T00:37:57;18.80;85.00
38488;DHT22;57384;51.986;4.458;2023-10-13T00:40:26;18.70;85.10
38488;DHT22;57384;51.986;4.458;2023-10-13T00:43:04;18.70;85.10
38488;DHT22;57384;51.986;4.458;2023-10-13T00:45:37;18.80;85.20
38488;DHT22;57384;51.986;4.458;2023-10-13T00:48:14;18.80;85.10
38488;DHT22;57384;51.986;4.458;2023-10-13T00:50:48;18.70;85.10
38488;DHT22;57384;51.986;4.458;2023-10-13T00:53:42;18.70;85.00
38488;DHT22;57384;51.986;4.458;2023-10-13T00:56:09;18.70;85.00
38488;DHT22;57384;51.986;4.458;2023-10-13T00:58:40;18.70;85.00
38488;DHT22;57384;51.986;4.458;2023-10-13T01:01:15;18.70;85.00
38488;DHT22;57384;51.986;4.458;2023-10-13T01:03:49;18.80;85.10
38488;DHT22;57384;51.986;4.458;2023-10-13T01:06:19;18.70;85.00
38488;DHT22;57384;51.986;4.458;2023-10-13T01:09:11;18.70;85.10
38488;DHT22;57384;51.986;4.458;2023-10-13T01:11:41;18.80;85.30
38488;DHT22;57384;51.986;4.458;2023-10-13T01:14:20;18.70;84.90
38488;DHT22;57384;51.986;4.458;2023-10-13T01:16:49;18.70;85.00
38488;DHT22;57384;51.986;4.458;2023-10-13T01:19:17;18.70;85.00
38488;DHT22;57384;51.986;4.458;2023-10-13T01:21:58;18.70;85.60
38488;DHT22;57384;51.986;4.458;2023-10-13T01:24:32;18.70;84.70
38488;DHT22;57384;51.986;4.458;2023-10-13T01:27:02;18.70;84.70
38488;DHT22;57384;51.986;4.458;2023-10-13T01:29:33;18.70;84.90
38488;DHT22;57384;51.986;4.458;2023-10-13T01:32:00;18.70;84.90
38488;DHT22;57384;51.986;4.458;2023-10-13T01:34:34;18.70;85.10
38488;DHT22;57384;51.986;4.458;2023-10-13T01:37:01;18.70;84.90
38488;DHT22;57384;51.986;4.458;2023-10-13T01:39:41;18.70;85.00
38488;DHT22;57384;51.986;4.458;2023-10-13T01:42:09;18.70;85.00
38488;DHT22;57384;51.986;4.458;2023-10-13T01:44:46;18.70;85.00
38488;DHT22;57384;51.986;4.458;2023-10-13T01:47:14;18.70;85.00
38488;DHT22;57384;51.986;4.458;2023-10-13T01:49:40;18.70;85.00
38488;DHT22;57384;51.986;4.458;2023-10-13T01:52:10;18.70;85.00
38488;DHT22;57384;51.986;4.458;2023-10-13T01:54:48;18.70;85.00
38488;DHT22;57384;51.986;4.458;2023-10-13T01:57:16;18.70;85.20
38488;DHT22;57384;51.986;4.458;2023-10-13T01:59:44;18.70;85.00
38488;DHT22;57384;51.986;4.458;2023-10-13T02:02:11;18.70;85.00
38488;DHT22;57384;51.986;4.458;2023-10-13T02:04:41;18.70;85.00
38488;DHT22;57384;51.986;4.458;2023-10-13T02:07:09;18.70;85.10
38488;DHT22;57384;51.986;4.458;2023-10-13T02:09:40;18.70;85.00
38488;DHT22;57384;51.986;4.458;2023-10-13T02:12:08;18.70;85.10
38488;DHT22;57384;51.986;4.458;2023-10-13T02:14:43;18.70;85.00
38488;DHT22;57384;51.986;4.458;2023-10-13T02:17:10;18.70;85.00
38488;DHT22;57384;51.986;4.458;2023-10-13T02:19:37;18.70;85.00
38488;DHT22;57384;51.986;4.458;2023-10-13T02:22:13;18.70;85.00
38488;DHT22;57384;51.986;4.458;2023-10-13T02:24:42;18.70;85.10
38488;DHT22;57384;51.986;4.458;2023-10-13T02:27:11;18.70;85.10
38488;DHT22;57384;51.986;4.458;2023-10-13T02:29:39;18.70;85.10
38488;DHT22;57384;51.986;4.458;2023-10-13T02:32:07;18.70;85.10
38488;DHT22;57384;51.986;4.458;2023-10-13T02:34:35;18.70;85.10
38488;DHT22;57384;51.986;4.458;2023-10-13T02:37:02;18.70;85.10
38488;DHT22;57384;51.986;4.458;2023-10-13T02:39:31;18.70;85.00
38488;DHT22;57384;51.986;4.458;2023-10-13T02:41:59;18.70;85.10
38488;DHT22;57384;51.986;4.458;2023-10-13T02:44:26;18.70;85.00
38488;DHT22;57384;51.986;4.458;2023-10-13T02:46:58;18.70;85.00
38488;DHT22;57384;51.986;4.458;2023-10-13T02:49:26;18.70;85.00
38488;DHT22;57384;51.986;4.458;2023-10-13T02:51:54;18.70;85.00
38488;DHT22;57384;51.986;4.458;2023-10-13T02:54:20;18.60;85.00
38488;DHT22;57384;51.986;4.458;2023-10-13T02:56:47;18.60;85.00
38488;DHT22;57384;51.986;4.458;2023-10-13T02:59:14;18.60;85.00
38488;DHT22;57384;51.986;4.458;2023-10-13T03:01:41;18.60;85.00
38488;DHT22;57384;51.986;4.458;2023-10-13T03:04:14;18.60;84.90
38488;DHT22;57384;51.986;4.458;2023-10-13T03:06:40;18.60;84.90
38488;DHT22;57384;51.986;4.458;2023-10-13T03:09:08;18.60;84.90
38488;DHT22;57384;51.986;4.458;2023-10-13T03:11:35;18.60;85.00
38488;DHT22;57384;51.986;4.458;2023-10-13T03:14:03;18.60;84.90
38488;DHT22;57384;51.986;4.458;2023-10-13T03:16:30;18.60;85.00
38488;DHT22;57384;51.986;4.458;2023-10-13T03:18:58;18.60;85.00
38488;DHT22;57384;51.986;4.458;2023-10-13T03:21:30;18.60;85.00
38488;DHT22;57384;51.986;4.458;2023-10-13T03:23:59;18.60;85.00
38488;DHT22;57384;51.986;4.458;2023-10-13T03:26:30;18.60;85.10
38488;DHT22;57384;51.986;4.458;2023-10-13T03:28:57;18.60;85.10
38488;DHT22;57384;51.986;4.458;2023-10-13T03:31:37;18.60;85.10
38488;DHT22;57384;51.986;4.458;2023-10-13T03:34:09;18.60;85.10
38488;DHT22;57384;51.986;4.458;2023-10-13T03:36:37;18.60;85.00
38488;DHT22;57384;51.986;4.458;2023-10-13T03:39:24;18.50;85.00
38488;DHT22;57384;51.986;4.458;2023-10-13T03:41:52;18.60;85.00
38488;DHT22;57384;51.986;4.458;2023-10-13T03:44:20;18.50;85.00
38488;DHT22;57384;51.986;4.458;2023-10-13T03:46:52;18.50;84.90
38488;DHT22;57384;51.986;4.458;2023-10-13T03:52:03;18.50;84.90
38488;DHT22;57384;51.986;4.458;2023-10-13T03:54:31;18.50;84.90
38488;DHT22;57384;51.986;4.458;2023-10-13T03:57:05;18.50;85.00
38488;DHT22;57384;51.986;4.458;2023-10-13T03:59:38;18.50;85.10
38488;DHT22;57384;51.986;4.458;2023-10-13T04:02:07;18.50;85.00
38488;DHT22;57384;51.986;4.458;2023-10-13T04:04:42;18.50;85.00
38488;DHT22;57384;51.986;4.458;2023-10-13T04:07:08;18.50;85.00
38488;DHT22;57384;51.986;4.458;2023-10-13T04:09:36;18.50;85.00
38488;DHT22;57384;51.986;4.458;2023-10-13T04:12:09;18.50;85.00
38488;DHT22;57384;51.986;4.458;2023-10-13T04:14:47;18.50;85.20
38488;DHT22;57384;51.986;4.458;2023-10-13T04:17:14;18.50;85.20
38488;DHT22;57384;51.986;4.458;2023-10-13T04:19:57;18.50;85.20
38488;DHT22;57384;51.986;4.458;2023-10-13T04:22:24;18.50;85.40
38488;DHT22;57384;51.986;4.458;2023-10-13T04:24:51;18.50;85.30
38488;DHT22;57384;51.986;4.458;2023-10-13T04:27:28;18.40;85.20
38488;DHT22;57384;51.986;4.458;2023-10-13T04:29:55;18.50;85.20
38488;DHT22;57384;51.986;4.458;2023-10-13T04:32:22;18.50;85.40
38488;DHT22;57384;51.986;4.458;2023-10-13T04:34:49;18.50;85.30
38488;DHT22;57384;51.986;4.458;2023-10-13T04:37:17;18.50;85.30
38488;DHT22;57384;51.986;4.458;2023-10-13T04:39:44;18.50;85.50
38488;DHT22;57384;51.986;4.458;2023-10-13T04:42:22;18.50;85.40
38488;DHT22;57384;51.986;4.458;2023-10-13T04:44:49;18.50;85.60
38488;DHT22;57384;51.986;4.458;2023-10-13T04:47:16;18.50;85.50
38488;DHT22;57384;51.986;4.458;2023-10-13T04:49:44;18.50;85.50
38488;DHT22;57384;51.986;4.458;2023-10-13T04:52:11;18.60;85.60
38488;DHT22;57384;51.986;4.458;2023-10-13T04:54:45;18.50;85.60
38488;DHT22;57384;51.986;4.458;2023-10-13T04:57:24;18.60;85.80
38488;DHT22;57384;51.986;4.458;2023-10-13T05:00:03;18.60;85.90
38488;DHT22;57384;51.986;4.458;2023-10-13T05:02:31;18.60;85.80
38488;DHT22;57384;51.986;4.458;2023-10-13T05:04:58;18.60;85.80
38488;DHT22;57384;51.986;4.458;2023-10-13T05:07:24;18.60;85.80
38488;DHT22;57384;51.986;4.458;2023-10-13T05:09:52;18.60;85.80
38488;DHT22;57384;51.986;4.458;2023-10-13T05:12:19;18.60;85.80
38488;DHT22;57384;51.986;4.458;2023-10-13T05:14:46;18.60;85.70
38488;DHT22;57384;51.986;4.458;2023-10-13T05:17:13;18.60;85.70
38488;DHT22;57384;51.986;4.458;2023-10-13T05:19:40;18.70;85.80
38488;DHT22;57384;51.986;4.458;2023-10-13T05:22:08;18.60;85.60
38488;DHT22;57384;51.986;4.458;2023-10-13T05:24:35;18.60;85.60
38488;DHT22;57384;51.986;4.458;2023-10-13T05:27:02;18.60;85.50
38488;DHT22;57384;51.986;4.458;2023-10-13T05:29:28;18.60;85.40
38488;DHT22;57384;51.986;4.458;2023-10-13T05:31:55;18.60;85.40
38488;DHT22;57384;51.986;4.458;2023-10-13T05:34:23;18.60;85.30
38488;DHT22;57384;51.986;4.458;2023-10-13T05:36:55;18.60;85.30
38488;DHT22;57384;51.986;4.458;2023-10-13T05:39:23;18.60;85.30
38488;DHT22;57384;51.986;4.458;2023-10-13T05:41:50;18.60;85.40
38488;DHT22;57384;51.986;4.458;2023-10-13T05:44:16;18.60;85.30
38488;DHT22;57384;51.986;4.458;2023-10-13T05:46:43;18.60;85.30
38488;DHT22;57384;51.986;4.458;2023-10-13T05:49:10;18.60;85.30
38488;DHT22;57384;51.986;4.458;2023-10-13T05:51:38;18.60;85.20
38488;DHT22;57384;51.986;4.458;2023-10-13T05:54:05;18.50;85.20
38488;DHT22;57384;51.986;4.458;2023-10-13T05:56:31;18.50;85.20
38488;DHT22;57384;51.986;4.458;2023-10-13T05:58:58;18.50;85.20
38488;DHT22;57384;51.986;4.458;2023-10-13T06:01:26;18.50;85.20
38488;DHT22;57384;51.986;4.458;2023-10-13T06:03:52;18.60;85.40
38488;DHT22;57384;51.986;4.458;2023-10-13T06:06:19;18.50;85.30
38488;DHT22;57384;51.986;4.458;2023-10-13T06:08:48;18.50;85.40
38488;DHT22;57384;51.986;4.458;2023-10-13T06:11:16;18.50;85.40
38488;DHT22;57384;51.986;4.458;2023-10-13T06:13:43;18.50;85.40
38488;DHT22;57384;51.986;4.458;2023-10-13T06:16:12;18.50;85.50
38488;DHT22;57384;51.986;4.458;2023-10-13T06:18:40;18.50;85.60
38488;DHT22;57384;51.986;4.458;2023-10-13T06:21:13;18.50;85.60
38488;DHT22;57384;51.986;4.458;2023-10-13T06:23:39;18.50;85.60
38488;DHT22;57384;51.986;4.458;2023-10-13T06:26:08;18.50;85.60
38488;DHT22;57384;51.986;4.458;2023-10-13T06:28:35;18.50;85.70
38488;DHT22;57384;51.986;4.458;2023-10-13T06:31:03;18.50;85.80
38488;DHT22;57384;51.986;4.458;2023-10-13T06:33:31;18.50;85.90
38488;DHT22;57384;51.986;4.458;2023-10-13T06:36:01;18.50;86.10
38488;DHT22;57384;51.986;4.458;2023-10-13T06:38:28;18.50;86.10
38488;DHT22;57384;51.986;4.458;2023-10-13T06:40:54;18.60;86.20
38488;DHT22;57384;51.986;4.458;2023-10-13T06:43:21;18.50;86.20
38488;DHT22;57384;51.986;4.458;2023-10-13T06:45:48;18.60;86.20
38488;DHT22;57384;51.986;4.458;2023-10-13T06:48:16;18.60;86.20
38488;DHT22;57384;51.986;4.458;2023-10-13T06:50:50;18.60;86.40
38488;DHT22;57384;51.986;4.458;2023-10-13T06:53:17;18.60;86.60
38488;DHT22;57384;51.986;4.458;2023-10-13T06:55:46;18.60;86.60
38488;DHT22;57384;51.986;4.458;2023-10-13T06:58:14;18.60;86.60
38488;DHT22;57384;51.986;4.458;2023-10-13T07:00:42;18.60;86.60
38488;DHT22;57384;51.986;4.458;2023-10-13T07:03:08;18.60;86.60
38488;DHT22;57384;51.986;4.458;2023-10-13T07:05:37;18.60;86.60
38488;DHT22;57384;51.986;4.458;2023-10-13T07:08:09;18.60;86.70
38488;DHT22;57384;51.986;4.458;2023-10-13T07:10:36;18.60;86.90
38488;DHT22;57384;51.986;4.458;2023-10-13T07:13:03;18.70;86.90
38488;DHT22;57384;51.986;4.458;2023-10-13T07:15:29;18.70;86.90
38488;DHT22;57384;51.986;4.458;2023-10-13T07:17:58;18.70;86.80
38488;DHT22;57384;51.986;4.458;2023-10-13T07:20:25;18.70;86.80
38488;DHT22;57384;51.986;4.458;2023-10-13T07:22:52;18.70;86.80
38488;DHT22;57384;51.986;4.458;2023-10-13T07:25:19;18.70;86.80
38488;DHT22;57384;51.986;4.458;2023-10-13T07:27:48;18.70;86.70
38488;DHT22;57384;51.986;4.458;2023-10-13T07:30:21;18.70;86.80
38488;DHT22;57384;51.986;4.458;2023-10-13T07:32:47;18.80;86.80
38488;DHT22;57384;51.986;4.458;2023-10-13T07:35:18;18.80;86.80
38488;DHT22;57384;51.986;4.458;2023-10-13T07:37:47;18.80;86.90
38488;DHT22;57384;51.986;4.458;2023-10-13T07:40:15;18.80;86.80
38488;DHT22;57384;51.986;4.458;2023-10-13T07:42:41;18.80;86.70
38488;DHT22;57384;51.986;4.458;2023-10-13T07:45:09;18.90;86.60
38488;DHT22;57384;51.986;4.458;2023-10-13T07:47:36;18.90;86.60
38488;DHT22;57384;51.986;4.458;2023-10-13T07:50:02;18.90;86.50
38488;DHT22;57384;51.986;4.458;2023-10-13T07:52:30;18.90;86.50
38488;DHT22;57384;51.986;4.458;2023-10-13T07:54:57;18.90;86.40
38488;DHT22;57384;51.986;4.458;2023-10-13T07:57:25;18.90;86.40
38488;DHT22;57384;51.986;4.458;2023-10-13T07:59:51;18.90;86.40
38488;DHT22;57384;51.986;4.458;2023-10-13T08:02:18;19.00;86.40
38488;DHT22;57384;51.986;4.458;2023-10-13T08:04:46;19.00;86.40
38488;DHT22;57384;51.986;4.458;2023-10-13T08:07:12;19.00;86.30
38488;DHT22;57384;51.986;4.458;2023-10-13T08:09:40;19.00;86.40
38488;DHT22;57384;51.986;4.458;2023-10-13T08:12:07;19.10;86.30
38488;DHT22;57384;51.986;4.458;2023-10-13T08:14:38;19.10;86.30
38488;DHT22;57384;51.986;4.458;2023-10-13T08:17:08;19.10;86.30
38488;DHT22;57384;51.986;4.458;2023-10-13T08:19:36;19.10;86.40
38488;DHT22;57384;51.986;4.458;2023-10-13T08:22:02;19.10;86.10
38488;DHT22;57384;51.986;4.458;2023-10-13T08:24:30;19.10;86.20
38488;DHT22;57384;51.986;4.458;2023-10-13T08:26:57;19.10;86.20
38488;DHT22;57384;51.986;4.458;2023-10-13T08:29:24;19.10;86.20
38488;DHT22;57384;51.986;4.458;2023-10-13T08:31:52;19.20;85.90
38488;DHT22;57384;51.986;4.458;2023-10-13T08:34:19;19.20;85.80
38488;DHT22;57384;51.986;4.458;2023-10-13T08:36:45;19.10;85.80
38488;DHT22;57384;51.986;4.458;2023-10-13T08:39:12;19.20;85.90
38488;DHT22;57384;51.986;4.458;2023-10-13T08:41:39;19.20;85.90
38488;DHT22;57384;51.986;4.458;2023-10-13T08:44:07;19.20;85.90
38488;DHT22;57384;51.986;4.458;2023-10-13T08:46:38;19.30;85.90
38488;DHT22;57384;51.986;4.458;2023-10-13T08:49:06;19.30;85.80
38488;DHT22;57384;51.986;4.458;2023-10-13T08:51:35;19.30;85.70
38488;DHT22;57384;51.986;4.458;2023-10-13T08:54:03;19.30;85.70
38488;DHT22;57384;51.986;4.458;2023-10-13T08:56:31;19.30;85.60
38488;DHT22;57384;51.986;4.458;2023-10-13T08:58:58;19.30;85.60
38488;DHT22;57384;51.986;4.458;2023-10-13T09:01:26;19.30;85.50
38488;DHT22;57384;51.986;4.458;2023-10-13T09:03:55;19.40;85.60
38488;DHT22;57384;51.986;4.458;2023-10-13T09:06:23;19.30;85.40
38488;DHT22;57384;51.986;4.458;2023-10-13T09:08:49;19.30;85.40
38488;DHT22;57384;51.986;4.458;2023-10-13T09:11:17;19.40;85.40
38488;DHT22;57384;51.986;4.458;2023-10-13T09:13:44;19.40;85.30
38488;DHT22;57384;51.986;4.458;2023-10-13T09:16:14;19.40;85.20
38488;DHT22;57384;51.986;4.458;2023-10-13T09:18:42;19.40;85.80
38488;DHT22;57384;51.986;4.458;2023-10-13T09:21:10;19.40;85.20
38488;DHT22;57384;51.986;4.458;2023-10-13T09:23:46;19.50;85.30
38488;DHT22;57384;51.986;4.458;2023-10-13T09:26:12;19.40;85.20
38488;DHT22;57384;51.986;4.458;2023-10-13T09:28:42;19.50;85.20
38488;DHT22;57384;51.986;4.458;2023-10-13T09:31:08;19.50;85.10
38488;DHT22;57384;51.986;4.458;2023-10-13T09:33:36;19.50;85.10
38488;DHT22;57384;51.986;4.458;2023-10-13T09:36:04;19.50;85.60
38488;DHT22;57384;51.986;4.458;2023-10-13T09:38:36;19.50;84.90
38488;DHT22;57384;51.986;4.458;2023-10-13T09:41:07;19.60;84.90
38488;DHT22;57384;51.986;4.458;2023-10-13T09:43:33;19.60;84.90
38488;DHT22;57384;51.986;4.458;2023-10-13T09:46:00;19.60;84.90
38488;DHT22;57384;51.986;4.458;2023-10-13T09:48:32;19.60;84.70
38488;DHT22;57384;51.986;4.458;2023-10-13T09:51:03;19.60;84.70
38488;DHT22;57384;51.986;4.458;2023-10-13T09:53:32;19.60;84.70
38488;DHT22;57384;51.986;4.458;2023-10-13T09:58:34;19.60;84.50
38488;DHT22;57384;51.986;4.458;2023-10-13T10:01:02;19.70;84.50
38488;DHT22;57384;51.986;4.458;2023-10-13T10:03:30;19.70;84.50
38488;DHT22;57384;51.986;4.458;2023-10-13T10:06:02;19.70;84.40
38488;DHT22;57384;51.986;4.458;2023-10-13T10:08:30;19.70;84.30
38488;DHT22;57384;51.986;4.458;2023-10-13T10:14:07;19.80;84.40
38488;DHT22;57384;51.986;4.458;2023-10-13T10:19:25;19.90;84.30
38488;DHT22;57384;51.986;4.458;2023-10-13T10:22:05;19.90;84.10
38488;DHT22;57384;51.986;4.458;2023-10-13T10:24:37;20.00;84.20
38488;DHT22;57384;51.986;4.458;2023-10-13T10:27:04;20.00;84.10
38488;DHT22;57384;51.986;4.458;2023-10-13T10:29:33;20.00;84.10
38488;DHT22;57384;51.986;4.458;2023-10-13T10:32:12;20.10;84.00
38488;DHT22;57384;51.986;4.458;2023-10-13T10:34:39;20.10;83.80
38488;DHT22;57384;51.986;4.458;2023-10-13T10:37:06;20.20;83.70
38488;DHT22;57384;51.986;4.458;2023-10-13T10:39:36;20.20;83.70
38488;DHT22;57384;51.986;4.458;2023-10-13T10:42:13;20.20;83.60
38488;DHT22;57384;51.986;4.458;2023-10-13T10:44:41;20.20;83.40
38488;DHT22;57384;51.986;4.458;2023-10-13T10:47:12;20.30;83.50
38488;DHT22;57384;51.986;4.458;2023-10-13T10:49:40;20.30;83.50
38488;DHT22;57384;51.986;4.458;2023-10-13T10:52:09;20.30;83.20
38488;DHT22;57384;51.986;4.458;2023-10-13T10:54:37;20.30;83.10
38488;DHT22;57384;51.986;4.458;2023-10-13T10:57:05;20.40;83.10
38488;DHT22;57384;51.986;4.458;2023-10-13T10:59:34;20.40;83.00
38488;DHT22;57384;51.986;4.458;2023-10-13T11:02:03;20.50;82.90
38488;DHT22;57384;51.986;4.458;2023-10-13T11:04:30;20.50;83.00
38488;DHT22;57384;51.986;4.458;2023-10-13T11:06:57;20.40;82.80
38488;DHT22;57384;51.986;4.458;2023-10-13T11:09:27;20.50;82.80
38488;DHT22;57384;51.986;4.458;2023-10-13T11:11:54;20.50;82.70
38488;DHT22;57384;51.986;4.458;2023-10-13T11:14:22;20.50;82.60
38488;DHT22;57384;51.986;4.458;2023-10-13T11:16:50;20.50;82.50
38488;DHT22;57384;51.986;4.458;2023-10-13T11:19:18;20.60;82.50
38488;DHT22;57384;51.986;4.458;2023-10-13T11:21:47;20.60;82.30
38488;DHT22;57384;51.986;4.458;2023-10-13T11:24:13;20.60;82.20
38488;DHT22;57384;51.986;4.458;2023-10-13T11:26:46;20.70;82.10
38488;DHT22;57384;51.986;4.458;2023-10-13T11:29:12;20.70;82.00
38488;DHT22;57384;51.986;4.458;2023-10-13T11:31:39;20.80;81.80
38488;DHT22;57384;51.986;4.458;2023-10-13T11:34:05;20.80;81.50
38488;DHT22;57384;51.986;4.458;2023-10-13T11:36:32;20.90;81.40
38488;DHT22;57384;51.986;4.458;2023-10-13T11:39:00;20.80;81.20
38488;DHT22;57384;51.986;4.458;2023-10-13T11:41:28;20.90;81.10
38488;DHT22;57384;51.986;4.458;2023-10-13T11:43:55;20.90;80.90
38488;DHT22;57384;51.986;4.458;2023-10-13T11:46:25;20.90;80.70
38488;DHT22;57384;51.986;4.458;2023-10-13T11:48:52;20.90;80.50
38488;DHT22;57384;51.986;4.458;2023-10-13T11:51:21;21.00;80.50
38488;DHT22;57384;51.986;4.458;2023-10-13T11:53:48;21.00;80.30
38488;DHT22;57384;51.986;4.458;2023-10-13T11:56:15;21.00;80.20
38488;DHT22;57384;51.986;4.458;2023-10-13T11:58:42;21.00;80.10
38488;DHT22;57384;51.986;4.458;2023-10-13T12:01:15;21.00;80.00
38488;DHT22;57384;51.986;4.458;2023-10-13T12:03:43;21.00;79.90
38488;DHT22;57384;51.986;4.458;2023-10-13T12:06:09;21.00;80.00
38488;DHT22;57384;51.986;4.458;2023-10-13T12:08:49;21.00;79.90
38488;DHT22;57384;51.986;4.458;2023-10-13T12:11:22;21.00;79.60
38488;DHT22;57384;51.986;4.458;2023-10-13T12:14:07;21.00;79.50
38488;DHT22;57384;51.986;4.458;2023-10-13T12:16:53;21.00;79.40
38488;DHT22;57384;51.986;4.458;2023-10-13T12:19:29;21.00;79.30
38488;DHT22;57384;51.986;4.458;2023-10-13T12:21:57;21.00;79.20
38488;DHT22;57384;51.986;4.458;2023-10-13T12:24:30;21.10;79.10
38488;DHT22;57384;51.986;4.458;2023-10-13T12:26:57;21.10;79.00
38488;DHT22;57384;51.986;4.458;2023-10-13T12:29:26;21.10;79.00
38488;DHT22;57384;51.986;4.458;2023-10-13T12:31:57;21.10;79.00
38488;DHT22;57384;51.986;4.458;2023-10-13T12:34:25;21.10;78.90
38488;DHT22;57384;51.986;4.458;2023-10-13T12:36:52;21.10;78.70
38488;DHT22;57384;51.986;4.458;2023-10-13T12:39:19;21.10;78.70
38488;DHT22;57384;51.986;4.458;2023-10-13T12:41:46;21.10;78.80
38488;DHT22;57384;51.986;4.458;2023-10-13T12:44:19;21.10;78.80
38488;DHT22;57384;51.986;4.458;2023-10-13T12:46:46;21.10;78.70
38488;DHT22;57384;51.986;4.458;2023-10-13T12:49:18;21.20;78.90
38488;DHT22;57384;51.986;4.458;2023-10-13T12:51:46;21.10;78.80
38488;DHT22;57384;51.986;4.458;2023-10-13T12:54:14;21.20;78.80
38488;DHT22;57384;51.986;4.458;2023-10-13T12:56:40;21.10;78.80
38488;DHT22;57384;51.986;4.458;2023-10-13T12:59:09;21.20;78.90
38488;DHT22;57384;51.986;4.458;2023-10-13T13:01:35;21.10;78.90
38488;DHT22;57384;51.986;4.458;2023-10-13T13:04:02;21.20;79.00
38488;DHT22;57384;51.986;4.458;2023-10-13T13:06:29;21.20;79.00
38488;DHT22;57384;51.986;4.458;2023-10-13T13:08:57;21.20;79.00
38488;DHT22;57384;51.986;4.458;2023-10-13T13:11:25;21.10;79.00
38488;DHT22;57384;51.986;4.458;2023-10-13T13:13:53;21.20;79.00
38488;DHT22;57384;51.986;4.458;2023-10-13T13:16:20;21.20;79.00
38488;DHT22;57384;51.986;4.458;2023-10-13T13:18:47;21.10;78.90
38488;DHT22;57384;51.986;4.458;2023-10-13T13:21:16;21.10;78.90
38488;DHT22;57384;51.986;4.458;2023-10-13T13:23:44;21.10;78.90
38488;DHT22;57384;51.986;4.458;2023-10-13T13:26:11;21.20;78.80
38488;DHT22;57384;51.986;4.458;2023-10-13T13:28:38;21.10;78.80
38488;DHT22;57384;51.986;4.458;2023-10-13T13:31:05;21.20;78.80
38488;DHT22;57384;51.986;4.458;2023-10-13T13:33:34;21.10;78.60
38488;DHT22;57384;51.986;4.458;2023-10-13T13:36:00;21.20;78.60
38488;DHT22;57384;51.986;4.458;2023-10-13T13:38:27;21.20;78.60
38488;DHT22;57384;51.986;4.458;2023-10-13T13:40:55;21.20;78.60
38488;DHT22;57384;51.986;4.458;2023-10-13T13:43:31;21.10;78.50
38488;DHT22;57384;51.986;4.458;2023-10-13T13:45:59;21.20;78.60
38488;DHT22;57384;51.986;4.458;2023-10-13T13:48:28;21.20;78.70
38488;DHT22;57384;51.986;4.458;2023-10-13T13:50:54;21.10;78.90
38488;DHT22;57384;51.986;4.458;2023-10-13T13:53:21;21.10;79.00
38488;DHT22;57384;51.986;4.458;2023-10-13T13:55:47;21.10;79.30
38488;DHT22;57384;51.986;4.458;2023-10-13T13:58:14;21.10;79.40
38488;DHT22;57384;51.986;4.458;2023-10-13T14:00:42;21.10;79.60
38488;DHT22;57384;51.986;4.458;2023-10-13T14:03:09;21.10;79.80
38488;DHT22;57384;51.986;4.458;2023-10-13T14:05:40;21.00;79.90
38488;DHT22;57384;51.986;4.458;2023-10-13T14:08:08;21.10;80.20
38488;DHT22;57384;51.986;4.458;2023-10-13T14:10:35;21.00;80.20
38488;DHT22;57384;51.986;4.458;2023-10-13T14:13:01;21.00;80.40
38488;DHT22;57384;51.986;4.458;2023-10-13T14:15:33;21.00;80.50
38488;DHT22;57384;51.986;4.458;2023-10-13T14:18:00;20.90;80.60
38488;DHT22;57384;51.986;4.458;2023-10-13T14:20:27;20.90;80.70
38488;DHT22;57384;51.986;4.458;2023-10-13T14:22:54;20.90;80.80
38488;DHT22;57384;51.986;4.458;2023-10-13T14:25:20;20.80;80.90
38488;DHT22;57384;51.986;4.458;2023-10-13T14:27:48;20.80;81.00
38488;DHT22;57384;51.986;4.458;2023-10-13T14:30:16;20.80;81.10
38488;DHT22;57384;51.986;4.458;2023-10-13T14:32:52;20.80;81.20
38488;DHT22;57384;51.986;4.458;2023-10-13T14:35:25;20.80;81.30
38488;DHT22;57384;51.986;4.458;2023-10-13T14:37:53;20.70;81.40
38488;DHT22;57384;51.986;4.458;2023-10-13T14:40:20;20.70;81.50
38488;DHT22;57384;51.986;4.458;2023-10-13T14:42:47;20.70;81.50
38488;DHT22;57384;51.986;4.458;2023-10-13T14:45:16;20.70;81.60
38488;DHT22;57384;51.986;4.458;2023-10-13T14:47:44;20.70;81.70
38488;DHT22;57384;51.986;4.458;2023-10-13T14:50:12;20.70;81.80
38488;DHT22;57384;51.986;4.458;2023-10-13T14:52:41;20.70;81.90
38488;DHT22;57384;51.986;4.458;2023-10-13T14:55:08;20.70;81.90
38488;DHT22;57384;51.986;4.458;2023-10-13T14:57:35;20.60;81.90
38488;DHT22;57384;51.986;4.458;2023-10-13T15:00:03;20.60;81.70
38488;DHT22;57384;51.986;4.458;2023-10-13T15:02:31;20.60;81.80
38488;DHT22;57384;51.986;4.458;2023-10-13T15:04:58;20.60;82.10
38488;DHT22;57384;51.986;4.458;2023-10-13T15:07:25;20.60;82.20
38488;DHT22;57384;51.986;4.458;2023-10-13T15:09:54;20.60;82.20
38488;DHT22;57384;51.986;4.458;2023-10-13T15:12:26;20.60;82.30
38488;DHT22;57384;51.986;4.458;2023-10-13T15:14:55;20.60;82.30
38488;DHT22;57384;51.986;4.458;2023-10-13T15:17:24;20.50;82.30
38488;DHT22;57384;51.986;4.458;2023-10-13T15:19:51;20.50;82.30
38488;DHT22;57384;51.986;4.458;2023-10-13T15:22:17;20.50;82.40
38488;DHT22;57384;51.986;4.458;2023-10-13T15:24:44;20.50;82.40
38488;DHT22;57384;51.986;4.458;2023-10-13T15:27:11;20.50;82.50
38488;DHT22;57384;51.986;4.458;2023-10-13T15:29:41;20.50;82.50
38488;DHT22;57384;51.986;4.458;2023-10-13T15:32:07;20.50;82.60
38488;DHT22;57384;51.986;4.458;2023-10-13T15:34:34;20.50;82.60
38488;DHT22;57384;51.986;4.458;2023-10-13T15:37:02;20.50;82.60
38488;DHT22;57384;51.986;4.458;2023-10-13T15:39:28;20.40;82.60
38488;DHT22;57384;51.986;4.458;2023-10-13T15:41:57;20.40;83.00
38488;DHT22;57384;51.986;4.458;2023-10-13T15:44:25;20.50;82.80
38488;DHT22;57384;51.986;4.458;2023-10-13T15:46:55;20.50;82.80
38488;DHT22;57384;51.986;4.458;2023-10-13T15:49:23;20.40;82.80
38488;DHT22;57384;51.986;4.458;2023-10-13T15:51:49;20.40;82.90
38488;DHT22;57384;51.986;4.458;2023-10-13T15:54:17;20.40;82.60
38488;DHT22;57384;51.986;4.458;2023-10-13T15:56:50;20.40;82.70